createdAt,value
2018-03-25T00:02:21.657Z,79.70
2018-03-25T00:04:49.561Z,79.90
2018-03-25T00:07:17.534Z,79.30
2018-03-25T00:09:45.123Z,79.30
2018-03-25T00:12:13.015Z,79.50
2018-03-25T00:14:40.934Z,79.70
2018-03-25T00:17:08.974Z,79.70
2018-03-25T00:19:36.500Z,79.90
2018-03-25T00:22:04.399Z,80.50
2018-03-25T00:24:31.948Z,80.50
2018-03-25T00:26:59.462Z,80.60
2018-03-25T00:29:27.444Z,80.60
2018-03-25T00:31:55.346Z,80.50
2018-03-25T00:34:23.277Z,80.10
2018-03-25T00:36:50.768Z,80.10
2018-03-25T00:39:18.295Z,80.50
2018-03-25T00:41:46.208Z,80.10
2018-03-25T00:44:13.701Z,80.10
2018-03-25T00:46:41.245Z,80.10
2018-03-25T00:49:08.747Z,80.00
2018-03-25T00:51:36.720Z,79.20
2018-03-25T00:54:04.721Z,79.60
2018-03-25T00:56:32.743Z,79.90
2018-03-25T00:59:00.238Z,79.90
2018-03-25T01:01:27.795Z,79.80
2018-03-25T01:03:55.692Z,79.90
2018-03-25T01:06:23.596Z,79.90
2018-03-25T01:08:51.153Z,79.90
2018-03-25T01:11:18.675Z,79.90
2018-03-25T01:13:46.235Z,79.70
2018-03-25T01:16:14.150Z,80.10
2018-03-25T01:18:41.646Z,80.20
2018-03-25T01:21:09.174Z,80.30
2018-03-25T01:23:36.679Z,80.30
2018-03-25T01:26:04.597Z,80.50
2018-03-25T01:28:32.100Z,80.50
2018-03-25T01:30:59.604Z,80.50
2018-03-25T01:33:27.200Z,80.30
2018-03-25T01:35:54.719Z,80.30
2018-03-25T01:38:22.283Z,80.50
2018-03-25T01:40:50.210Z,80.40
2018-03-25T01:43:17.712Z,80.40
2018-03-25T01:45:45.217Z,81.00
2018-03-25T01:48:12.742Z,81.20
2018-03-25T01:50:40.851Z,81.00
2018-03-25T01:53:08.340Z,81.00
2018-03-25T01:55:35.886Z,81.90
2018-03-25T01:58:03.380Z,81.90
2018-03-25T02:00:31.361Z,81.90
2018-03-25T02:02:58.866Z,81.90
2018-03-25T02:05:26.780Z,81.70
2018-03-25T02:07:54.334Z,81.70
2018-03-25T02:10:22.221Z,82.20
2018-03-25T02:12:50.139Z,82.30
2018-03-25T02:15:17.689Z,82.30
2018-03-25T02:17:45.211Z,81.90
2018-03-25T02:20:12.709Z,82.00
2018-03-25T02:22:40.231Z,82.00
2018-03-25T02:25:07.716Z,81.80
2018-03-25T02:27:35.320Z,82.00
2018-03-25T02:30:03.305Z,82.10
2018-03-25T02:32:30.813Z,82.10
2018-03-25T02:34:58.698Z,82.30
2018-03-25T02:37:26.605Z,82.20
2018-03-25T02:39:54.168Z,82.20
2018-03-25T02:42:22.116Z,82.00
2018-03-25T02:44:49.611Z,82.00
2018-03-25T02:47:17.251Z,81.70
2018-03-25T02:49:44.759Z,81.80
2018-03-25T02:52:12.274Z,81.70
2018-03-25T02:54:39.784Z,81.90
2018-03-25T02:57:07.693Z,82.10
2018-03-25T02:59:35.185Z,82.10
2018-03-25T03:02:02.740Z,82.40
2018-03-25T03:04:30.644Z,82.30
2018-03-25T03:06:58.622Z,82.50
2018-03-25T03:09:26.530Z,82.30
2018-03-25T03:11:54.443Z,82.30
2018-03-25T03:14:21.940Z,82.30
2018-03-25T03:16:49.449Z,82.50
2018-03-25T03:19:16.960Z,82.50
2018-03-25T03:21:44.968Z,82.40
2018-03-25T03:24:12.940Z,82.30
2018-03-25T03:26:40.461Z,82.30
2018-03-25T03:29:07.952Z,82.50
2018-03-25T03:31:35.499Z,82.90
2018-03-25T03:34:03.489Z,82.70
2018-03-25T03:36:31.119Z,82.70
2018-03-25T03:38:58.633Z,82.80
2018-03-25T03:41:26.138Z,82.70
2018-03-25T03:43:53.724Z,83.00
2018-03-25T03:46:21.209Z,82.90
2018-03-25T03:48:48.721Z,82.90
2018-03-25T03:51:16.624Z,82.50
2018-03-25T03:53:44.183Z,82.50
2018-03-25T03:56:12.163Z,82.60
2018-03-25T03:58:39.741Z,82.60
2018-03-25T04:01:07.250Z,82.60
2018-03-25T04:03:35.157Z,82.80
2018-03-25T04:06:02.654Z,82.80
2018-03-25T04:08:30.169Z,82.90
2018-03-25T04:10:57.674Z,82.60
2018-03-25T04:13:25.191Z,82.60
2018-03-25T04:15:52.686Z,82.70
2018-03-25T04:18:20.230Z,82.70
2018-03-25T04:20:47.740Z,82.70
2018-03-25T04:23:15.252Z,83.10
2018-03-25T04:25:42.736Z,83.30
2018-03-25T04:28:10.258Z,83.30
2018-03-25T04:30:37.836Z,83.50
2018-03-25T04:33:05.428Z,83.90
2018-03-25T04:35:33.035Z,84.00
2018-03-25T04:38:00.951Z,83.50
2018-03-25T04:40:28.497Z,83.50
2018-03-25T04:42:56.009Z,83.40
2018-03-25T04:45:23.498Z,83.30
2018-03-25T04:47:51.013Z,83.20
2018-03-25T04:50:18.517Z,83.40
2018-03-25T04:52:46.111Z,83.60
2018-03-25T04:55:13.615Z,83.90
2018-03-25T04:57:41.597Z,83.60
2018-03-25T05:00:09.480Z,83.40
2018-03-25T05:02:36.968Z,83.40
2018-03-25T05:05:04.886Z,83.40
2018-03-25T05:07:32.382Z,83.40
2018-03-25T05:09:59.943Z,83.30
2018-03-25T05:12:27.844Z,83.70
2018-03-25T05:14:55.405Z,83.70
2018-03-25T05:17:22.994Z,83.90
2018-03-25T05:19:50.587Z,83.80
2018-03-25T05:22:18.473Z,84.30
2018-03-25T05:24:45.994Z,84.30
2018-03-25T05:27:13.501Z,83.90
2018-03-25T05:29:41.030Z,83.90
2018-03-25T05:32:08.933Z,84.00
2018-03-25T05:34:36.462Z,84.00
2018-03-25T05:37:03.980Z,84.10
2018-03-25T05:39:31.506Z,84.00
2018-03-25T05:41:59.054Z,84.30
2018-03-25T05:44:26.961Z,84.70
2018-03-25T05:46:54.930Z,84.90
2018-03-25T05:49:22.446Z,84.90
2018-03-25T05:51:50.001Z,84.90
2018-03-25T05:54:17.595Z,85.00
2018-03-25T05:56:45.580Z,85.20
2018-03-25T05:59:13.178Z,85.20
2018-03-25T06:01:41.078Z,85.20
2018-03-25T06:04:09.074Z,85.30
2018-03-25T06:06:36.976Z,85.00
2018-03-25T06:09:04.508Z,85.00
2018-03-25T06:11:32.001Z,84.80
2018-03-25T06:13:59.518Z,84.50
2018-03-25T06:16:27.418Z,83.80
2018-03-25T06:18:54.987Z,83.80
2018-03-25T06:21:22.982Z,83.80
2018-03-25T06:23:50.884Z,83.80
2018-03-25T06:26:18.868Z,83.30
2018-03-25T06:28:46.798Z,83.10
2018-03-25T06:31:14.341Z,83.10
2018-03-25T06:33:42.334Z,82.70
2018-03-25T06:36:10.343Z,82.60
2018-03-25T06:38:38.236Z,82.30
2018-03-25T06:41:06.151Z,82.20
2018-03-25T06:43:33.658Z,82.20
2018-03-25T06:46:01.291Z,82.10
2018-03-25T06:48:29.203Z,82.20
2018-03-25T06:50:56.758Z,82.20
2018-03-25T06:53:24.249Z,81.60
2018-03-25T06:55:52.151Z,81.50
2018-03-25T06:58:20.037Z,81.40
2018-03-25T07:00:48.027Z,81.00
2018-03-25T07:03:16.030Z,80.90
2018-03-25T07:05:44.013Z,80.60
2018-03-25T07:08:11.905Z,79.90
2018-03-25T07:10:39.823Z,80.00
2018-03-25T07:13:07.347Z,80.10
2018-03-25T07:15:34.977Z,80.10
2018-03-25T07:18:02.865Z,76.10
2018-03-25T07:20:30.845Z,74.80
2018-03-25T07:22:58.341Z,74.80
2018-03-25T07:25:26.324Z,75.00
2018-03-25T07:27:53.910Z,75.00
2018-03-25T07:30:21.417Z,75.70
2018-03-25T07:32:49.311Z,75.40
2018-03-25T07:35:16.825Z,75.40
2018-03-25T07:37:44.329Z,75.50
2018-03-25T07:40:11.844Z,75.50
2018-03-25T07:42:39.828Z,74.30
2018-03-25T07:45:07.417Z,74.30
2018-03-25T07:47:34.904Z,73.70
2018-03-25T07:50:02.847Z,71.00
2018-03-25T07:52:30.355Z,71.00
2018-03-25T07:54:57.869Z,70.30
2018-03-25T07:57:25.849Z,69.20
2018-03-25T07:59:53.374Z,69.20
2018-03-25T08:02:20.878Z,68.40
2018-03-25T08:04:48.410Z,68.00
2018-03-25T08:07:16.314Z,66.90
2018-03-25T08:09:44.215Z,66.40
2018-03-25T08:12:11.773Z,66.40
2018-03-25T08:14:39.270Z,65.20
2018-03-25T08:17:07.252Z,63.80
2018-03-25T08:19:34.848Z,63.80
2018-03-25T08:22:02.773Z,62.70
2018-03-25T08:24:30.312Z,62.70
2018-03-25T08:26:57.831Z,61.50
2018-03-25T08:29:25.329Z,61.10
2018-03-25T08:31:52.971Z,61.30
2018-03-25T08:34:20.882Z,59.40
2018-03-25T08:36:48.446Z,59.40
2018-03-25T08:39:16.359Z,58.50
2018-03-25T08:41:43.912Z,58.50
2018-03-25T08:44:11.510Z,58.30
2018-03-25T08:46:39.425Z,57.90
2018-03-25T08:49:07.000Z,57.90
2018-03-25T08:51:35.003Z,55.90
2018-03-25T08:54:02.557Z,55.90
2018-03-25T08:56:30.086Z,57.60
2018-03-25T08:58:57.589Z,56.50
2018-03-25T09:01:25.223Z,56.00
2018-03-25T09:03:53.142Z,55.50
2018-03-25T09:06:20.671Z,55.50
2018-03-25T09:08:48.269Z,56.30
2018-03-25T09:11:15.895Z,55.80
2018-03-25T09:13:43.449Z,55.30
2018-03-25T09:16:11.052Z,56.50
2018-03-25T09:18:38.951Z,54.00
2018-03-25T09:21:06.478Z,54.00
2018-03-25T09:23:33.977Z,53.00
2018-03-25T09:26:01.596Z,50.40
2018-03-25T09:28:29.568Z,52.80
2018-03-25T09:30:57.156Z,52.80
2018-03-25T09:33:24.669Z,54.40
2018-03-25T09:35:52.173Z,54.70
2018-03-25T09:38:19.685Z,55.30
2018-03-25T09:40:47.199Z,54.00
2018-03-25T09:43:15.123Z,53.90
2018-03-25T09:45:42.626Z,53.90
2018-03-25T09:48:10.145Z,54.10
2018-03-25T09:50:37.750Z,54.60
2018-03-25T09:53:05.429Z,54.30
2018-03-25T09:55:32.938Z,54.20
2018-03-25T09:58:00.457Z,54.10
2018-03-25T10:00:29.917Z,54.50
2018-03-25T10:02:59.394Z,52.90
2018-03-25T10:05:26.909Z,52.60
2018-03-25T10:07:54.527Z,50.70
2018-03-25T10:10:22.509Z,50.10
2018-03-25T10:12:50.034Z,50.10
2018-03-25T10:15:17.539Z,49.50
2018-03-25T10:17:45.190Z,50.60
2018-03-25T10:20:12.687Z,50.10
2018-03-25T10:22:40.218Z,50.10
2018-03-25T10:25:08.640Z,50.60
2018-03-25T10:27:36.166Z,49.60
2018-03-25T10:30:03.677Z,50.70
2018-03-25T10:32:31.292Z,50.80
2018-03-25T10:34:58.793Z,49.70
2018-03-25T10:37:26.780Z,50.00
2018-03-25T10:39:54.686Z,51.10
2018-03-25T10:42:22.201Z,51.10
2018-03-25T10:44:49.821Z,49.60
2018-03-25T10:47:17.349Z,50.60
2018-03-25T10:49:44.854Z,51.20
2018-03-25T10:52:12.366Z,50.10
2018-03-25T10:54:39.898Z,49.60
2018-03-25T10:57:07.462Z,50.30
2018-03-25T10:59:35.378Z,50.20
2018-03-25T11:02:02.892Z,50.20
2018-03-25T11:04:30.521Z,48.40
2018-03-25T11:06:58.416Z,49.50
2018-03-25T11:09:26.324Z,50.20
2018-03-25T11:11:53.825Z,50.20
2018-03-25T11:14:21.696Z,51.20
2018-03-25T11:16:49.279Z,51.70
2018-03-25T11:19:17.267Z,51.40
2018-03-25T11:21:45.178Z,51.50
2018-03-25T11:24:12.697Z,51.50
2018-03-25T11:26:40.218Z,51.40
2018-03-25T11:29:08.134Z,51.20
2018-03-25T11:31:35.701Z,51.20
2018-03-25T11:34:03.699Z,52.40
2018-03-25T11:36:31.593Z,51.90
2018-03-25T11:38:59.508Z,52.60
2018-03-25T11:41:27.006Z,52.60
2018-03-25T11:43:54.531Z,53.00
2018-03-25T11:46:22.130Z,51.70
2018-03-25T11:48:50.113Z,50.60
2018-03-25T11:51:17.613Z,50.60
2018-03-25T11:53:45.611Z,51.30
2018-03-25T11:56:13.501Z,50.90
2018-03-25T11:58:41.419Z,50.40
2018-03-25T12:01:08.918Z,50.40
2018-03-25T12:03:36.433Z,50.50
2018-03-25T12:06:04.245Z,51.30
2018-03-25T12:08:31.830Z,51.10
2018-03-25T12:10:59.408Z,50.60
2018-03-25T12:13:26.926Z,50.20
2018-03-25T12:15:54.435Z,49.30
2018-03-25T12:18:21.957Z,50.00
2018-03-25T12:20:49.473Z,51.00
2018-03-25T12:23:16.992Z,50.30
2018-03-25T12:25:44.614Z,50.40
2018-03-25T12:28:12.209Z,51.10
2018-03-25T12:30:40.139Z,51.30
2018-03-25T12:33:07.694Z,51.30
2018-03-25T12:35:35.235Z,51.20
2018-03-25T12:38:02.752Z,50.40
2018-03-25T12:40:30.674Z,50.80
2018-03-25T12:42:58.178Z,50.80
2018-03-25T12:45:25.815Z,50.60
2018-03-25T12:47:53.721Z,50.30
2018-03-25T12:50:21.702Z,51.30
2018-03-25T12:52:49.234Z,51.30
2018-03-25T12:55:16.762Z,50.40
2018-03-25T12:57:44.346Z,50.20
2018-03-25T13:00:12.354Z,49.50
2018-03-25T13:02:40.248Z,51.00
2018-03-25T13:05:08.174Z,50.20
2018-03-25T13:07:35.726Z,50.20
2018-03-25T13:10:03.647Z,49.90
2018-03-25T13:12:31.148Z,49.90
2018-03-25T13:14:58.675Z,50.50
2018-03-25T13:17:26.677Z,50.60
2018-03-25T13:19:54.656Z,50.80
2018-03-25T13:22:22.168Z,50.80
2018-03-25T13:24:49.709Z,51.70
2018-03-25T13:27:17.210Z,52.20
2018-03-25T13:29:44.729Z,51.40
2018-03-25T13:32:12.233Z,52.00
2018-03-25T13:34:39.748Z,52.40
2018-03-25T13:37:07.260Z,52.00
2018-03-25T13:39:35.246Z,53.20
2018-03-25T13:42:02.732Z,53.20
2018-03-25T13:44:30.234Z,52.40
2018-03-25T13:46:58.158Z,52.30
2018-03-25T13:49:25.657Z,52.30
2018-03-25T13:51:53.164Z,51.10
2018-03-25T13:54:20.680Z,51.10
2018-03-25T13:56:48.200Z,50.30
2018-03-25T13:59:15.753Z,50.80
2018-03-25T14:01:43.271Z,51.80
2018-03-25T14:04:11.248Z,52.00
2018-03-25T14:06:38.768Z,52.00
2018-03-25T14:09:06.346Z,50.60
2018-03-25T14:11:34.267Z,52.30
2018-03-25T14:14:01.764Z,52.30
2018-03-25T14:16:29.287Z,52.30
2018-03-25T14:18:56.780Z,52.30
2018-03-25T14:21:24.297Z,51.90
2018-03-25T14:23:52.290Z,51.60
2018-03-25T14:26:20.227Z,51.30
2018-03-25T14:28:47.733Z,51.30
2018-03-25T14:31:15.259Z,52.30
2018-03-25T14:33:42.756Z,51.60
2018-03-25T14:36:10.670Z,51.50
2018-03-25T14:38:38.165Z,51.50
2018-03-25T14:41:05.739Z,51.70
2018-03-25T14:43:33.817Z,52.30
2018-03-25T14:46:01.469Z,52.30
2018-03-25T14:48:28.964Z,50.80
2018-03-25T14:50:56.472Z,51.70
2018-03-25T14:53:23.987Z,51.60
2018-03-25T14:55:51.938Z,57.30
2018-03-25T14:58:19.440Z,57.30
2018-03-25T15:00:47.053Z,49.30
2018-03-25T15:03:14.559Z,49.20
2018-03-25T15:05:42.469Z,50.00
2018-03-25T15:08:10.033Z,50.00
2018-03-25T15:10:37.934Z,50.10
2018-03-25T15:13:05.467Z,50.20
2018-03-25T15:15:32.969Z,51.20
2018-03-25T15:18:00.581Z,50.80
2018-03-25T15:20:28.081Z,51.40
2018-03-25T15:22:55.995Z,51.40
2018-03-25T15:25:23.980Z,51.50
2018-03-25T15:27:51.529Z,51.50
2018-03-25T15:30:19.077Z,51.90
2018-03-25T15:32:47.067Z,51.90
2018-03-25T15:35:14.556Z,51.90
2018-03-25T15:37:42.106Z,52.70
2018-03-25T15:40:09.596Z,52.60
2018-03-25T15:42:37.117Z,52.40
2018-03-25T15:45:04.624Z,52.70
2018-03-25T15:47:32.537Z,52.90
2018-03-25T15:50:00.037Z,52.90
2018-03-25T15:52:27.565Z,53.20
2018-03-25T15:54:55.179Z,53.50
2018-03-25T15:57:23.103Z,53.90
2018-03-25T15:59:50.597Z,53.90
2018-03-25T16:02:18.115Z,54.40
2018-03-25T16:04:45.722Z,54.20
2018-03-25T16:07:13.704Z,55.30
2018-03-25T16:09:41.330Z,55.20
2018-03-25T16:12:08.787Z,55.30
2018-03-25T16:14:37.278Z,54.40
2018-03-25T16:17:04.932Z,54.60
2018-03-25T16:19:32.488Z,54.40
2018-03-25T16:22:00.078Z,54.60
2018-03-25T16:24:27.566Z,55.00
2018-03-25T16:26:55.150Z,54.70
2018-03-25T16:29:22.658Z,54.90
2018-03-25T16:31:50.579Z,55.30
2018-03-25T16:34:18.098Z,55.30
2018-03-25T16:36:45.594Z,56.10
2018-03-25T16:39:13.119Z,56.70
2018-03-25T16:41:41.104Z,57.80
2018-03-25T16:44:09.104Z,57.80
2018-03-25T16:46:36.624Z,57.80
2018-03-25T16:49:04.172Z,58.40
2018-03-25T16:51:31.668Z,58.50
2018-03-25T16:53:59.219Z,58.30
2018-03-25T16:56:26.733Z,58.30
2018-03-25T16:58:54.650Z,58.40
2018-03-25T17:01:22.571Z,58.40
2018-03-25T17:03:50.104Z,58.40
2018-03-25T17:06:17.628Z,58.70
2018-03-25T17:08:45.173Z,58.70
2018-03-25T17:11:12.693Z,58.60
2018-03-25T17:13:40.221Z,58.70
2018-03-25T17:16:07.823Z,58.70
2018-03-25T17:18:35.482Z,59.20
2018-03-25T17:21:02.963Z,61.50
2018-03-25T17:23:30.486Z,58.60
2018-03-25T17:25:58.484Z,59.70
2018-03-25T17:28:26.411Z,59.90
2018-03-25T17:30:53.960Z,59.90
2018-03-25T17:33:21.882Z,60.50
2018-03-25T17:35:49.378Z,60.50
2018-03-25T17:38:16.893Z,60.30
2018-03-25T17:40:44.406Z,60.60
2018-03-25T17:43:12.331Z,60.60
2018-03-25T17:45:39.880Z,60.60
2018-03-25T17:48:07.879Z,60.90
2018-03-25T17:50:35.408Z,60.90
2018-03-25T17:53:02.916Z,60.90
2018-03-25T17:55:30.413Z,61.20
2018-03-25T17:57:58.421Z,61.40
2018-03-25T18:00:25.920Z,61.40
2018-03-25T18:02:53.443Z,61.70
2018-03-25T18:05:20.969Z,62.00
2018-03-25T18:07:48.970Z,62.50
2018-03-25T18:10:16.502Z,62.60
2018-03-25T18:12:44.130Z,62.50
2018-03-25T18:15:12.127Z,63.40
2018-03-25T18:17:39.722Z,63.40
2018-03-25T18:20:07.272Z,63.40
2018-03-25T18:22:34.773Z,63.00
2018-03-25T18:25:02.752Z,62.70
2018-03-25T18:27:30.360Z,62.70
2018-03-25T18:29:57.885Z,63.00
2018-03-25T18:32:25.418Z,63.00
2018-03-25T18:34:53.341Z,63.10
2018-03-25T18:37:20.929Z,63.10
2018-03-25T18:39:48.896Z,63.30
2018-03-25T18:42:16.788Z,63.50
2018-03-25T18:44:44.704Z,63.40
2018-03-25T18:47:12.215Z,63.40
2018-03-25T18:49:39.762Z,63.50
2018-03-25T18:52:07.331Z,63.50
2018-03-25T18:54:35.247Z,63.90
2018-03-25T18:57:02.759Z,63.90
2018-03-25T18:59:30.338Z,64.00
2018-03-25T19:01:57.850Z,63.60
2018-03-25T19:04:25.379Z,64.00
2018-03-25T19:06:52.880Z,64.00
2018-03-25T19:09:20.417Z,64.40
2018-03-25T19:11:48.440Z,64.70
2018-03-25T19:14:15.999Z,64.70
2018-03-25T19:16:43.907Z,64.70
2018-03-25T19:19:11.586Z,64.70
2018-03-25T19:21:39.568Z,64.40
2018-03-25T19:24:07.162Z,64.40
2018-03-25T19:26:34.689Z,64.60
2018-03-25T19:29:02.184Z,65.00
2018-03-25T19:31:29.729Z,64.70
2018-03-25T19:33:57.224Z,64.80
2018-03-25T19:36:24.748Z,64.90
2018-03-25T19:38:52.357Z,64.90
2018-03-25T19:41:20.269Z,65.20
2018-03-25T19:43:48.181Z,65.60
2018-03-25T19:46:15.710Z,65.60
2018-03-25T19:48:43.217Z,65.50
2018-03-25T19:51:11.218Z,65.60
2018-03-25T19:53:39.112Z,65.50
2018-03-25T19:56:07.031Z,65.30
2018-03-25T19:58:34.545Z,65.30
2018-03-25T20:01:02.076Z,64.80
2018-03-25T20:03:29.642Z,65.00
2018-03-25T20:05:57.156Z,65.40
2018-03-25T20:08:24.671Z,65.50
2018-03-25T20:10:52.192Z,65.60
2018-03-25T20:13:19.692Z,65.40
2018-03-25T20:15:47.711Z,65.60
2018-03-25T20:18:15.216Z,65.60
2018-03-25T20:20:42.737Z,65.70
2018-03-25T20:23:10.320Z,65.60
2018-03-25T20:25:37.846Z,65.30
2018-03-25T20:28:05.385Z,65.20
2018-03-25T20:30:32.986Z,65.60
2018-03-25T20:33:00.907Z,65.90
2018-03-25T20:35:28.469Z,65.90
2018-03-25T20:37:56.036Z,66.30
2018-03-25T20:40:23.953Z,66.40
2018-03-25T20:42:51.511Z,66.40
2018-03-25T20:45:19.097Z,66.30
2018-03-25T20:47:46.601Z,66.20
2018-03-25T20:50:14.518Z,65.70
2018-03-25T20:52:42.016Z,65.70
2018-03-25T20:55:09.523Z,65.80
2018-03-25T20:57:37.045Z,65.60
2018-03-25T21:00:04.940Z,65.40
2018-03-25T21:02:32.517Z,65.40
2018-03-25T21:05:00.412Z,66.20
2018-03-25T21:07:28.320Z,66.50
2018-03-25T21:09:55.868Z,66.50
2018-03-25T21:12:23.390Z,66.50
2018-03-25T21:14:50.884Z,67.10
2018-03-25T21:17:18.397Z,67.00
2018-03-25T21:19:45.900Z,66.20
2018-03-25T21:22:13.506Z,66.20
2018-03-25T21:24:41.503Z,66.20
2018-03-25T21:27:09.429Z,65.90
2018-03-25T21:29:36.952Z,65.90
2018-03-25T21:32:04.465Z,65.50
2018-03-25T21:34:32.361Z,65.90
2018-03-25T21:36:59.886Z,65.90
2018-03-25T21:39:27.394Z,66.10
2018-03-25T21:41:55.003Z,66.10
2018-03-25T21:44:22.896Z,66.20
2018-03-25T21:46:50.805Z,66.00
2018-03-25T21:49:18.361Z,66.00
2018-03-25T21:51:46.306Z,66.20
2018-03-25T21:54:13.869Z,66.20
2018-03-25T21:56:41.449Z,66.70
2018-03-25T21:59:09.019Z,66.60
2018-03-25T22:01:36.943Z,67.10
2018-03-25T22:04:04.515Z,67.10
2018-03-25T22:06:32.071Z,67.00
2018-03-25T22:08:59.566Z,67.80
2018-03-25T22:11:27.478Z,69.00
2018-03-25T22:13:54.968Z,69.10
2018-03-25T22:16:22.524Z,68.20
2018-03-25T22:18:58.892Z,67.50
2018-03-25T22:21:26.409Z,67.50
2018-03-25T22:23:54.398Z,67.50
2018-03-25T22:26:22.403Z,67.60
2018-03-25T22:28:49.974Z,67.60
2018-03-25T22:31:17.965Z,67.80
2018-03-25T22:33:45.881Z,67.90
2018-03-25T22:36:13.371Z,67.90
2018-03-25T22:38:40.919Z,68.30
2018-03-25T22:41:08.826Z,68.60
2018-03-25T22:43:36.736Z,68.70
2018-03-25T22:46:04.238Z,68.70
2018-03-25T22:48:31.758Z,68.60
2018-03-25T22:50:59.263Z,68.30
2018-03-25T22:53:27.173Z,68.30
2018-03-25T22:55:55.061Z,69.20
2018-03-25T22:58:22.978Z,68.50
2018-03-25T23:00:50.468Z,68.50
2018-03-25T23:03:18.008Z,68.70
2018-03-25T23:05:45.916Z,69.30
2018-03-25T23:08:13.456Z,69.50
2018-03-25T23:10:40.960Z,69.30
2018-03-25T23:13:08.883Z,69.50
2018-03-25T23:15:36.430Z,69.50
2018-03-25T23:18:03.909Z,69.10
2018-03-25T23:20:31.409Z,69.20
2018-03-25T23:22:59.394Z,69.60
2018-03-25T23:25:27.285Z,69.50
2018-03-25T23:27:54.802Z,69.50
2018-03-25T23:30:22.364Z,69.50
2018-03-25T23:32:50.303Z,70.00
2018-03-25T23:35:17.810Z,70.00
2018-03-25T23:37:45.323Z,69.90
2018-03-25T23:40:12.818Z,70.40
2018-03-25T23:42:40.747Z,70.40
2018-03-25T23:45:08.241Z,70.40
2018-03-25T23:47:35.778Z,70.60
2018-03-25T23:50:03.681Z,72.50
2018-03-25T23:52:31.168Z,72.50
2018-03-25T23:54:58.723Z,71.10
2018-03-25T23:57:26.623Z,71.60
2018-03-25T23:59:54.542Z,71.80
